Time;durP1;ratioP1;P1;durP2;ratioP2;P2;SDS_P1;SDS_P2;PMS_P1;PMS_P2;Temp;Humidity;BMP_temperature;BMP_pressure;BME280_temperature;BME280_humidity;BME280_pressure;Samples;Min_cycle;Max_cycle;Signal;HPM_P1;HPM_P2
2022/10/30 00:00:33;;;;;;;7.70;6.30;;;15.10;99.90;;;;;;5027156;28;20857;-71
2022/10/30 00:02:58;;;;;;;9.03;8.13;;;15.00;99.90;;;;;;5043616;28;20223;-69
2022/10/30 00:05:24;;;;;;;10.57;8.13;;;15.00;99.90;;;;;;5036302;28;20462;-71
2022/10/30 00:07:50;;;;;;;15.50;8.37;;;15.00;99.90;;;;;;5046170;28;20311;-70
2022/10/30 00:10:17;;;;;;;11.37;7.70;;;14.90;99.90;;;;;;5057837;28;20577;-70
2022/10/30 00:12:43;;;;;;;10.50;7.50;;;14.90;99.90;;;;;;5060494;28;20295;-71
2022/10/30 00:15:09;;;;;;;16.60;8.90;;;14.90;99.90;;;;;;5048363;28;20466;-70
2022/10/30 00:17:35;;;;;;;9.60;7.63;;;14.80;99.90;;;;;;5027721;28;20509;-71
2022/10/30 00:20:00;;;;;;;11.00;6.93;;;14.90;99.90;;;;;;5058303;28;20462;-70
2022/10/30 00:22:26;;;;;;;8.77;7.10;;;14.90;99.90;;;;;;5032936;28;20815;-70
2022/10/30 00:24:52;;;;;;;15.00;8.37;;;14.70;99.90;;;;;;5043798;28;20723;-69
2022/10/30 00:27:18;;;;;;;10.50;7.37;;;14.70;99.90;;;;;;5044894;28;20215;-69
2022/10/30 00:29:44;;;;;;;18.47;7.93;;;14.70;99.90;;;;;;5041230;28;20743;-69
2022/10/30 00:32:10;;;;;;;9.87;6.73;;;14.70;99.90;;;;;;5036749;28;20706;-70
2022/10/30 00:34:36;;;;;;;14.43;7.73;;;14.80;99.90;;;;;;5031624;28;20459;-72
2022/10/30 00:37:02;;;;;;;11.83;7.50;;;14.80;99.90;;;;;;5026352;28;20251;-71
2022/10/30 00:39:27;;;;;;;13.43;7.50;;;14.80;99.90;;;;;;5039287;28;20903;-71
2022/10/30 00:41:53;;;;;;;13.03;8.77;;;14.70;99.90;;;;;;5037544;28;20224;-71
2022/10/30 00:44:31;;;;;;;11.20;7.83;;;14.70;99.90;;;;;;5050460;28;20219;-69
2022/10/30 00:46:58;;;;;;;12.90;7.77;;;14.70;99.90;;;;;;5023174;28;20224;-69
2022/10/30 00:49:24;;;;;;;13.90;7.87;;;14.70;99.90;;;;;;5055956;28;20454;-71
2022/10/30 00:51:53;;;;;;;8.77;6.93;;;14.70;99.90;;;;;;5043092;28;20478;-69
2022/10/30 00:54:20;;;;;;;12.80;7.43;;;14.70;99.90;;;;;;5032342;28;20223;-70
2022/10/30 00:56:47;;;;;;;13.73;8.20;;;14.70;99.90;;;;;;5025749;28;20878;-70
2022/10/30 00:59:18;;;;;;;9.70;7.30;;;14.70;99.90;;;;;;5035913;28;20462;-70
2022/10/30 01:01:46;;;;;;;13.30;8.17;;;14.70;99.90;;;;;;5036941;28;20458;-69
2022/10/30 01:04:15;;;;;;;11.10;8.50;;;14.70;99.90;;;;;;5038436;28;20454;-71
2022/10/30 01:06:43;;;;;;;9.77;7.63;;;14.70;99.90;;;;;;5039788;28;20454;-70
2022/10/30 01:09:09;;;;;;;16.07;7.50;;;14.70;99.90;;;;;;5035554;28;20462;-70
2022/10/30 01:11:34;;;;;;;14.10;8.43;;;14.70;99.90;;;;;;5036945;28;20451;-70
2022/10/30 01:14:05;;;;;;;13.40;8.10;;;14.70;99.90;;;;;;5025336;28;20227;-69
2022/10/30 01:16:56;;;;;;;9.90;7.87;;;14.60;99.90;;;;;;5044869;28;20443;-71
2022/10/30 01:19:34;;;;;;;12.60;7.67;;;14.60;99.90;;;;;;5017274;28;20530;-70
2022/10/30 01:22:03;;;;;;;10.63;7.30;;;14.60;99.90;;;;;;5037352;28;20446;-70
2022/10/30 01:24:44;;;;;;;13.33;8.77;;;14.60;99.90;;;;;;5037653;28;20442;-70
2022/10/30 01:27:34;;;;;;;12.07;7.97;;;14.60;99.90;;;;;;5036389;28;20838;-70
2022/10/30 01:30:21;;;;;;;11.53;8.03;;;14.60;99.90;;;;;;5029170;28;20460;-70
2022/10/30 01:33:02;;;;;;;8.77;7.10;;;14.60;99.90;;;;;;5016423;28;20447;-71
2022/10/30 01:35:43;;;;;;;9.87;7.63;;;14.60;99.90;;;;;;5049329;28;20513;-70
2022/10/30 01:38:19;;;;;;;11.43;8.30;;;14.50;99.90;;;;;;5053181;28;20466;-71
2022/10/30 01:40:47;;;;;;;11.97;7.50;;;14.50;99.90;;;;;;5048940;28;20454;-69
2022/10/30 01:43:14;;;;;;;14.20;8.00;;;14.50;99.90;;;;;;5038806;28;20993;-70
2022/10/30 01:45:55;;;;;;;9.87;8.30;;;14.50;99.90;;;;;;5057019;28;20450;-70
2022/10/30 01:48:43;;;;;;;12.70;7.93;;;14.50;99.90;;;;;;5051886;28;20458;-69
2022/10/30 01:51:30;;;;;;;9.90;7.83;;;14.50;99.90;;;;;;5040454;28;20446;-69
2022/10/30 01:54:11;;;;;;;11.80;7.67;;;14.50;99.90;;;;;;5041830;28;20462;-70
2022/10/30 01:56:47;;;;;;;10.13;7.37;;;14.50;99.90;;;;;;5030806;28;20457;-70
2022/10/30 01:59:25;;;;;;;13.07;7.50;;;14.40;99.90;;;;;;5045226;28;20457;-70
2022/10/30 02:01:51;;;;;;;10.60;8.00;;;14.40;99.90;;;;;;5059009;28;20452;-69
2022/10/30 02:04:17;;;;;;;10.70;7.80;;;14.40;99.90;;;;;;5034426;28;20847;-71
2022/10/30 02:06:44;;;;;;;14.30;7.87;;;14.40;99.90;;;;;;5042721;28;20310;-70
2022/10/30 02:09:10;;;;;;;9.33;8.13;;;14.40;99.90;;;;;;5025752;28;21020;-70
2022/10/30 02:11:45;;;;;;;13.27;7.63;;;14.40;99.90;;;;;;5040224;28;20962;-70
2022/10/30 02:14:14;;;;;;;18.90;7.97;;;14.40;99.90;;;;;;5028053;28;20446;-70
2022/10/30 02:16:46;;;;;;;12.47;8.67;;;14.40;99.90;;;;;;5047795;28;20493;-70
2022/10/30 02:19:12;;;;;;;9.53;7.43;;;14.30;99.90;;;;;;5028772;28;20864;-69
2022/10/30 02:21:38;;;;;;;11.40;7.47;;;14.30;99.90;;;;;;5050637;28;20462;-69
2022/10/30 02:24:04;;;;;;;13.70;8.67;;;14.30;99.90;;;;;;5022863;28;20217;-68
2022/10/30 02:26:29;;;;;;;11.13;7.80;;;14.30;99.90;;;;;;5039131;28;20233;-70
2022/10/30 02:28:55;;;;;;;11.17;8.37;;;14.30;99.90;;;;;;5032139;28;20530;-70
2022/10/30 02:31:21;;;;;;;11.90;8.73;;;14.30;99.90;;;;;;5025227;28;20240;-69
2022/10/30 02:33:48;;;;;;;10.83;8.20;;;14.30;99.90;;;;;;5021303;28;20304;-71
2022/10/30 02:36:14;;;;;;;11.30;7.30;;;14.30;99.90;;;;;;5022330;28;20462;-69
2022/10/30 02:38:40;;;;;;;10.60;8.40;;;14.30;99.90;;;;;;5020983;28;20471;-70
2022/10/30 02:41:07;;;;;;;13.67;7.50;;;14.30;99.90;;;;;;5043353;28;20452;-70
2022/10/30 02:43:32;;;;;;;10.27;8.00;;;14.30;99.90;;;;;;5026149;28;20458;-69
2022/10/30 02:45:58;;;;;;;11.97;8.17;;;14.30;99.90;;;;;;5027051;28;20221;-69
2022/10/30 02:48:24;;;;;;;14.73;7.97;;;14.20;99.90;;;;;;5018641;28;20220;-70
2022/10/30 02:50:49;;;;;;;11.40;7.33;;;14.20;99.90;;;;;;5026502;28;20720;-68
2022/10/30 02:53:15;;;;;;;8.97;7.30;;;14.20;99.90;;;;;;5023423;28;20220;-69
2022/10/30 02:55:41;;;;;;;9.30;7.80;;;14.20;99.90;;;;;;5039432;28;20533;-70
2022/10/30 02:58:07;;;;;;;14.60;7.67;;;14.20;99.90;;;;;;5052106;28;20228;-70
2022/10/30 03:00:33;;;;;;;9.63;7.80;;;14.20;99.90;;;;;;5046159;28;20208;-70
2022/10/30 03:02:58;;;;;;;12.37;8.43;;;14.20;99.90;;;;;;5045654;28;20221;-70
2022/10/30 03:05:24;;;;;;;11.20;8.43;;;14.20;99.90;;;;;;5041737;28;20271;-71
2022/10/30 03:07:50;;;;;;;8.87;7.93;;;14.20;99.90;;;;;;5046636;28;20223;-70
2022/10/30 03:10:17;;;;;;;11.13;7.50;;;14.20;99.90;;;;;;5044061;28;20220;-70
2022/10/30 03:12:42;;;;;;;9.03;7.10;;;14.10;99.90;;;;;;5045699;28;20265;-70
2022/10/30 03:15:09;;;;;;;9.67;8.07;;;14.10;99.90;;;;;;5043764;28;20520;-71
2022/10/30 03:17:34;;;;;;;13.60;8.90;;;14.10;99.90;;;;;;5045938;28;20233;-70
2022/10/30 03:20:00;;;;;;;9.30;6.90;;;14.10;99.90;;;;;;5042864;28;20455;-70
2022/10/30 03:22:26;;;;;;;12.20;6.80;;;14.10;99.90;;;;;;5040071;28;20313;-70
2022/10/30 03:24:52;;;;;;;11.63;7.57;;;14.10;99.90;;;;;;5056296;28;20334;-70
2022/10/30 03:27:18;;;;;;;11.07;7.47;;;14.10;99.90;;;;;;5018130;28;20543;-69
2022/10/30 03:29:44;;;;;;;11.50;7.20;;;14.10;99.90;;;;;;5046271;28;20967;-71
2022/10/30 03:32:12;;;;;;;13.20;8.37;;;14.10;99.90;;;;;;5043833;28;20224;-69
2022/10/30 03:34:49;;;;;;;11.63;7.23;;;14.10;99.90;;;;;;5039532;28;20500;-69
2022/10/30 03:37:14;;;;;;;13.47;7.77;;;14.10;99.90;;;;;;5043798;28;20474;-69
2022/10/30 03:39:40;;;;;;;8.20;6.50;;;14.10;99.90;;;;;;5051375;28;20274;-70
2022/10/30 03:42:06;;;;;;;15.63;8.50;;;14.00;99.90;;;;;;5021628;28;20228;-71
2022/10/30 03:44:32;;;;;;;13.53;7.63;;;14.00;99.90;;;;;;5030183;28;20458;-69
2022/10/30 03:46:57;;;;;;;8.30;7.00;;;14.00;99.90;;;;;;5028717;28;20226;-69
2022/10/30 03:49:29;;;;;;;10.50;7.40;;;14.00;99.90;;;;;;5036812;28;20223;-70
2022/10/30 03:51:55;;;;;;;8.30;6.50;;;14.00;99.90;;;;;;5024963;28;20471;-70
2022/10/30 03:54:23;;;;;;;9.27;7.33;;;14.00;99.90;;;;;;5032186;28;20491;-70
2022/10/30 03:56:49;;;;;;;9.50;7.17;;;14.00;99.90;;;;;;5061845;28;20887;-70
2022/10/30 03:59:15;;;;;;;8.57;6.60;;;14.00;99.90;;;;;;5026369;28;20695;-70
2022/10/30 04:01:48;;;;;;;13.03;8.10;;;14.00;99.90;;;;;;5044537;28;20469;-70
2022/10/30 04:04:14;;;;;;;10.57;7.37;;;13.90;99.90;;;;;;5042676;28;20475;-70
2022/10/30 04:06:40;;;;;;;9.83;7.50;;;13.90;99.90;;;;;;5041418;28;20498;-70
2022/10/30 04:09:07;;;;;;;10.50;7.40;;;13.90;99.90;;;;;;5041331;28;20223;-70
2022/10/30 04:11:38;;;;;;;14.43;9.30;;;13.90;99.90;;;;;;5052619;28;20456;-70
2022/10/30 04:14:04;;;;;;;11.10;8.03;;;13.90;99.90;;;;;;5037899;28;20452;-70
2022/10/30 04:16:31;;;;;;;10.13;8.40;;;13.90;99.90;;;;;;5039308;28;20303;-70
2022/10/30 04:18:59;;;;;;;13.10;7.50;;;13.90;99.90;;;;;;5031198;28;20466;-69
2022/10/30 04:21:25;;;;;;;12.37;7.73;;;13.90;99.90;;;;;;5059441;28;20439;-70
2022/10/30 04:23:52;;;;;;;13.20;7.60;;;13.80;99.90;;;;;;5027801;28;20316;-70
2022/10/30 04:26:21;;;;;;;12.20;9.57;;;13.80;99.90;;;;;;5042889;28;20978;-70
2022/10/30 04:28:47;;;;;;;12.20;8.37;;;13.70;99.90;;;;;;5040571;28;20457;-69
2022/10/30 04:31:13;;;;;;;13.50;8.60;;;13.70;99.90;;;;;;5042458;28;20467;-70
2022/10/30 04:33:39;;;;;;;11.37;8.40;;;13.70;99.90;;;;;;5028294;28;20453;-70
2022/10/30 04:36:05;;;;;;;11.47;9.17;;;13.70;99.90;;;;;;5045419;28;20241;-70
2022/10/30 04:38:31;;;;;;;13.80;8.00;;;13.70;99.90;;;;;;5037621;28;20695;-70
2022/10/30 04:40:57;;;;;;;9.67;7.90;;;13.70;99.90;;;;;;5061549;28;20451;-70
2022/10/30 04:43:31;;;;;;;13.73;9.20;;;13.70;99.90;;;;;;5041983;28;20242;-69
2022/10/30 04:45:57;;;;;;;9.97;8.13;;;13.70;99.90;;;;;;5045443;28;20519;-67
2022/10/30 04:48:23;;;;;;;9.60;7.10;;;13.70;99.90;;;;;;5030484;28;20224;-70
2022/10/30 04:50:48;;;;;;;11.93;9.07;;;13.70;99.90;;;;;;5028621;28;20216;-66
2022/10/30 04:53:21;;;;;;;10.60;8.50;;;13.60;99.90;;;;;;5041708;28;20295;-69
2022/10/30 04:55:54;;;;;;;15.73;8.67;;;13.60;99.90;;;;;;5028179;28;20450;-70
2022/10/30 04:58:20;;;;;;;12.90;8.70;;;13.60;99.90;;;;;;5025798;28;20462;-69
2022/10/30 05:00:51;;;;;;;10.53;8.70;;;13.60;99.90;;;;;;5028585;28;20450;-69
2022/10/30 05:03:20;;;;;;;16.57;8.20;;;13.60;99.90;;;;;;5041539;28;20454;-69
2022/10/30 05:05:54;;;;;;;12.97;8.60;;;13.60;99.90;;;;;;5043969;28;20450;-70
2022/10/30 05:08:20;;;;;;;14.43;8.70;;;13.60;99.90;;;;;;5020018;28;20467;-68
2022/10/30 05:10:45;;;;;;;11.93;9.07;;;13.60;99.90;;;;;;5044937;28;20550;-71
2022/10/30 05:13:12;;;;;;;12.33;8.27;;;13.60;99.90;;;;;;5041293;28;20239;-69
2022/10/30 05:15:38;;;;;;;11.83;8.57;;;13.60;99.90;;;;;;5044651;28;20985;-71
2022/10/30 05:18:03;;;;;;;10.10;8.03;;;13.60;99.90;;;;;;5049243;28;20231;-70
2022/10/30 05:20:29;;;;;;;12.67;8.83;;;13.60;99.90;;;;;;5048937;28;20223;-70
2022/10/30 05:22:57;;;;;;;14.70;9.23;;;13.60;99.90;;;;;;5022781;28;20707;-69
2022/10/30 05:25:25;;;;;;;10.20;8.83;;;13.60;99.90;;;;;;5045621;28;20462;-69
2022/10/30 05:28:00;;;;;;;12.40;8.77;;;13.60;99.90;;;;;;5047768;28;21033;-69
2022/10/30 05:30:29;;;;;;;15.03;9.70;;;13.60;99.90;;;;;;5058352;28;20467;-69
2022/10/30 05:33:01;;;;;;;12.40;7.57;;;13.60;99.90;;;;;;5020838;28;20466;-69
2022/10/30 05:35:28;;;;;;;13.07;9.03;;;13.60;99.90;;;;;;5041422;28;20457;-69
2022/10/30 05:37:54;;;;;;;12.03;8.33;;;13.60;99.90;;;;;;5064634;28;20459;-70
2022/10/30 05:40:19;;;;;;;14.40;9.27;;;13.60;99.90;;;;;;5035719;28;20458;-70
2022/10/30 05:42:49;;;;;;;10.73;9.37;;;13.60;99.90;;;;;;5031614;28;20220;-69
2022/10/30 05:45:16;;;;;;;12.53;8.70;;;13.60;99.90;;;;;;5021989;28;20463;-69
2022/10/30 05:47:43;;;;;;;11.70;8.43;;;13.50;99.90;;;;;;5038846;28;20481;-70
2022/10/30 05:50:11;;;;;;;16.03;8.40;;;13.50;99.90;;;;;;5030982;28;20451;-70
2022/10/30 05:52:37;;;;;;;11.03;7.83;;;13.50;99.90;;;;;;5037226;28;20536;-70
2022/10/30 05:55:03;;;;;;;10.00;7.70;;;13.50;99.90;;;;;;5047593;28;20489;-70
2022/10/30 05:57:49;;;;;;;9.30;7.43;;;13.50;99.90;;;;;;5041628;28;20239;-70
2022/10/30 06:00:15;;;;;;;12.17;7.93;;;13.40;99.90;;;;;;5061395;28;20451;-70
2022/10/30 06:02:41;;;;;;;10.47;7.87;;;13.40;99.90;;;;;;5045821;28;20462;-70
2022/10/30 06:05:07;;;;;;;10.23;7.80;;;13.40;99.90;;;;;;5045542;28;20452;-70
2022/10/30 06:07:33;;;;;;;8.13;6.90;;;13.40;99.90;;;;;;5027751;28;20216;-69
2022/10/30 06:09:59;;;;;;;11.23;8.80;;;13.30;99.90;;;;;;5031600;28;20467;-70
2022/10/30 06:12:42;;;;;;;9.27;7.70;;;13.30;99.90;;;;;;5032659;28;20442;-69
2022/10/30 06:15:22;;;;;;;11.93;8.63;;;13.40;99.90;;;;;;5033053;28;20454;-70
2022/10/30 06:17:49;;;;;;;13.17;8.83;;;13.40;99.90;;;;;;5025851;28;20463;-70
2022/10/30 06:20:34;;;;;;;13.03;8.70;;;13.40;99.90;;;;;;5046859;28;20477;-69
2022/10/30 06:23:20;;;;;;;12.67;8.63;;;13.40;99.90;;;;;;5045495;28;20978;-69
2022/10/30 06:25:57;;;;;;;9.80;8.03;;;13.30;99.90;;;;;;5026384;28;20455;-71
2022/10/30 06:28:32;;;;;;;14.30;9.93;;;13.30;99.90;;;;;;5045556;28;20448;-69
2022/10/30 06:30:57;;;;;;;17.40;8.80;;;13.30;99.90;;;;;;5062115;28;20466;-70
2022/10/30 06:33:23;;;;;;;10.03;8.20;;;13.30;99.90;;;;;;5039628;28;20327;-69
2022/10/30 06:35:50;;;;;;;10.37;8.33;;;13.30;99.90;;;;;;5063193;28;20246;-70
2022/10/30 06:38:17;;;;;;;9.23;7.90;;;13.30;99.90;;;;;;5045428;28;20470;-71
2022/10/30 06:40:44;;;;;;;12.90;8.63;;;13.30;99.90;;;;;;5053070;28;20461;-69
2022/10/30 06:43:21;;;;;;;10.70;8.50;;;13.30;99.90;;;;;;5013282;28;21046;-70
2022/10/30 06:45:53;;;;;;;10.53;7.20;;;13.30;99.90;;;;;;5027476;28;20451;-69
2022/10/30 06:48:19;;;;;;;14.53;8.83;;;13.30;99.90;;;;;;5039850;28;21012;-69
2022/10/30 06:50:58;;;;;;;11.17;8.60;;;13.20;99.90;;;;;;5031067;28;20216;-68
2022/10/30 06:53:25;;;;;;;10.30;7.57;;;13.20;99.90;;;;;;5042185;28;20487;-70
2022/10/30 06:55:54;;;;;;;8.27;7.40;;;13.20;99.90;;;;;;5046861;28;20450;-70
2022/10/30 06:58:40;;;;;;;12.33;8.43;;;13.20;99.90;;;;;;5043541;28;20493;-69
2022/10/30 07:01:09;;;;;;;9.53;7.50;;;13.20;99.90;;;;;;5040795;28;20504;-70
2022/10/30 07:03:55;;;;;;;8.37;6.60;;;13.20;99.90;;;;;;5045431;28;20447;-70
2022/10/30 07:06:22;;;;;;;9.07;7.43;;;13.20;99.90;;;;;;5019846;28;20538;-71
2022/10/30 07:08:47;;;;;;;13.00;7.90;;;13.20;99.90;;;;;;5043685;28;20545;-70
2022/10/30 07:11:14;;;;;;;12.63;9.30;;;13.20;99.90;;;;;;5044562;28;20220;-71
2022/10/30 07:13:45;;;;;;;9.10;6.93;;;13.20;99.90;;;;;;5029650;28;20451;-70
2022/10/30 07:16:31;;;;;;;8.00;6.30;;;13.10;99.90;;;;;;5045759;28;20449;-71
2022/10/30 07:18:56;;;;;;;8.77;7.33;;;13.20;99.90;;;;;;5060122;28;21091;-69
2022/10/30 07:21:22;;;;;;;8.20;6.63;;;13.20;99.90;;;;;;5058545;28;20621;-70
2022/10/30 07:23:48;;;;;;;7.63;6.50;;;13.20;99.90;;;;;;5024197;28;20311;-70
2022/10/30 07:26:27;;;;;;;7.80;7.00;;;13.20;99.90;;;;;;5029363;28;20220;-70
2022/10/30 07:28:55;;;;;;;8.03;7.17;;;13.20;99.90;;;;;;5045975;28;20549;-71
2022/10/30 07:31:42;;;;;;;11.30;7.70;;;13.20;99.90;;;;;;5043769;28;20545;-71
2022/10/30 07:34:28;;;;;;;9.57;8.57;;;13.20;99.90;;;;;;5044036;28;20474;-71
2022/10/30 07:37:04;;;;;;;9.93;7.80;;;13.20;99.90;;;;;;5026525;28;20474;-70
2022/10/30 07:39:42;;;;;;;9.70;8.13;;;13.20;99.90;;;;;;5026708;28;20481;-69
2022/10/30 07:42:19;;;;;;;7.83;6.93;;;13.20;99.90;;;;;;5025063;28;20474;-70
2022/10/30 07:45:03;;;;;;;7.80;6.70;;;13.20;99.90;;;;;;5048492;28;20874;-68
2022/10/30 07:47:47;;;;;;;8.57;7.17;;;13.30;99.90;;;;;;5044902;28;20465;-71
2022/10/30 07:50:40;;;;;;;8.50;7.60;;;13.30;99.90;;;;;;5029180;28;20449;-70
2022/10/30 07:53:06;;;;;;;8.70;6.50;;;13.30;99.90;;;;;;5040223;28;20671;-69
2022/10/30 07:55:32;;;;;;;9.23;7.60;;;13.30;99.90;;;;;;5058157;28;20461;-68
2022/10/30 07:58:13;;;;;;;8.30;7.10;;;13.30;99.90;;;;;;5043224;28;20234;-69
2022/10/30 08:00:57;;;;;;;6.40;5.87;;;13.30;99.90;;;;;;5042478;28;20469;-71
2022/10/30 08:03:29;;;;;;;7.60;6.90;;;13.30;99.90;;;;;;5044898;28;20481;-68
2022/10/30 08:06:01;;;;;;;7.90;6.43;;;13.30;99.90;;;;;;5045525;28;20508;-72
2022/10/30 08:08:31;;;;;;;7.80;7.00;;;13.30;99.90;;;;;;5043164;28;20489;-70
2022/10/30 08:11:16;;;;;;;6.83;6.13;;;13.30;99.90;;;;;;5042932;28;20504;-69
2022/10/30 08:13:42;;;;;;;7.23;6.63;;;13.30;99.90;;;;;;5042026;28;20827;-69
2022/10/30 08:16:08;;;;;;;8.27;7.10;;;13.30;99.90;;;;;;5023406;28;20455;-71
2022/10/30 08:18:34;;;;;;;6.93;6.23;;;13.40;99.90;;;;;;5042901;28;20247;-70
2022/10/30 08:21:00;;;;;;;9.07;5.93;;;13.40;99.90;;;;;;5035947;28;20249;-71
2022/10/30 08:23:26;;;;;;;7.60;5.70;;;13.40;99.90;;;;;;5024874;28;20208;-70
2022/10/30 08:25:59;;;;;;;6.73;5.90;;;13.50;99.90;;;;;;5025858;28;20258;-69
2022/10/30 08:28:25;;;;;;;6.83;5.77;;;13.50;99.90;;;;;;5038765;28;20451;-70
2022/10/30 08:30:51;;;;;;;6.43;5.80;;;13.60;99.90;;;;;;5028768;28;20558;-71
2022/10/30 08:33:27;;;;;;;6.70;6.10;;;13.60;99.90;;;;;;5027461;28;20465;-69
2022/10/30 08:36:13;;;;;;;10.70;5.80;;;13.60;99.90;;;;;;5059065;28;20958;-71
2022/10/30 08:38:38;;;;;;;6.63;5.93;;;13.70;99.90;;;;;;5042457;28;20505;-72
2022/10/30 08:41:18;;;;;;;7.43;6.73;;;13.70;99.90;;;;;;5023594;28;20227;-72
2022/10/30 08:43:46;;;;;;;7.43;6.63;;;13.70;99.90;;;;;;5039468;28;20454;-72
2022/10/30 08:46:12;;;;;;;6.90;5.83;;;13.70;99.90;;;;;;5017459;28;20512;-72
2022/10/30 08:48:39;;;;;;;6.80;6.10;;;13.70;99.90;;;;;;5041571;28;20219;-71
2022/10/30 08:51:06;;;;;;;8.40;6.80;;;13.70;99.90;;;;;;5023738;28;20451;-71
2022/10/30 08:53:35;;;;;;;7.27;5.40;;;13.70;99.90;;;;;;5042352;28;20215;-70
2022/10/30 08:56:06;;;;;;;10.20;7.73;;;13.80;99.90;;;;;;5044560;28;20461;-69
2022/10/30 08:58:58;;;;;;;7.53;6.80;;;13.80;99.90;;;;;;5028806;28;20474;-70
2022/10/30 09:01:24;;;;;;;7.00;6.27;;;13.80;99.90;;;;;;5021870;28;20490;-70
2022/10/30 09:04:25;;;;;;;9.37;6.83;;;13.80;99.90;;;;;;5017561;28;20212;-68
2022/10/30 09:07:31;;;;;;;10.27;6.63;;;13.90;99.90;;;;;;5009970;28;20985;-71
2022/10/30 09:10:15;;;;;;;7.30;6.10;;;13.90;99.90;;;;;;5015536;28;20513;-71
2022/10/30 09:12:41;;;;;;;9.33;7.27;;;14.00;99.90;;;;;;5022195;28;20470;-71
2022/10/30 09:15:07;;;;;;;9.13;7.40;;;14.00;99.90;;;;;;5036196;28;20470;-70
2022/10/30 09:17:43;;;;;;;8.33;7.37;;;14.10;99.90;;;;;;5036721;28;20665;-69
2022/10/30 09:20:09;;;;;;;12.87;8.40;;;14.10;99.90;;;;;;5033932;28;20497;-67
2022/10/30 09:22:41;;;;;;;11.40;7.80;;;14.10;99.90;;;;;;5029802;28;20231;-70
2022/10/30 09:25:07;;;;;;;9.53;8.50;;;14.30;99.90;;;;;;5037506;28;20466;-69
2022/10/30 09:27:56;;;;;;;11.50;8.33;;;14.30;99.90;;;;;;5040753;28;20473;-70
2022/10/30 09:30:25;;;;;;;11.60;8.80;;;14.40;99.90;;;;;;5033990;28;20470;-68
2022/10/30 09:32:59;;;;;;;11.80;9.13;;;14.60;99.90;;;;;;5047510;28;20462;-69
2022/10/30 09:35:44;;;;;;;11.83;8.97;;;14.70;99.90;;;;;;5032286;28;20475;-68
2022/10/30 09:38:10;;;;;;;10.30;9.30;;;14.80;99.90;;;;;;5032290;28;20471;-68
2022/10/30 09:40:45;;;;;;;10.17;9.00;;;14.80;99.90;;;;;;5038647;28;20216;-69
2022/10/30 09:44:02;;;;;;;9.97;8.57;;;14.90;99.90;;;;;;5043646;28;20294;-68
2022/10/30 09:47:00;;;;;;;10.60;8.90;;;15.00;99.90;;;;;;5034647;28;20457;-70
2022/10/30 09:49:54;;;;;;;12.27;10.97;;;15.20;99.90;;;;;;5035459;28;20486;-70
2022/10/30 09:52:25;;;;;;;14.43;11.70;;;15.30;99.90;;;;;;5037327;28;20450;-69
2022/10/30 09:55:13;;;;;;;12.47;10.20;;;15.40;99.90;;;;;;5035217;28;20451;-69
2022/10/30 09:58:04;;;;;;;16.20;11.77;;;15.40;99.90;;;;;;5031765;28;20470;-68
2022/10/30 10:00:38;;;;;;;17.33;11.40;;;15.50;99.90;;;;;;5042194;28;20592;-70
2022/10/30 10:03:49;;;;;;;13.60;9.73;;;15.60;99.90;;;;;;5030320;28;20470;-71
2022/10/30 10:06:55;;;;;;;15.70;10.57;;;15.70;99.90;;;;;;5036158;28;20546;-69
2022/10/30 10:09:44;;;;;;;13.63;11.33;;;15.70;99.90;;;;;;5039720;28;20459;-68
2022/10/30 10:12:38;;;;;;;13.20;10.80;;;15.80;99.90;;;;;;5054505;28;20532;-70
2022/10/30 10:15:23;;;;;;;11.47;10.13;;;15.90;99.90;;;;;;5037764;28;20910;-69
2022/10/30 10:17:49;;;;;;;13.90;9.80;;;15.90;99.90;;;;;;5022151;28;20561;-69
2022/10/30 10:20:39;;;;;;;14.47;10.43;;;16.00;99.90;;;;;;5052268;28;20537;-70
2022/10/30 10:23:17;;;;;;;12.17;10.20;;;16.10;99.90;;;;;;5038113;28;20220;-69
2022/10/30 10:25:50;;;;;;;17.23;10.87;;;16.20;99.90;;;;;;5039466;28;20455;-70
2022/10/30 10:28:25;;;;;;;11.93;9.53;;;16.30;99.90;;;;;;5033221;28;20462;-69
2022/10/30 10:31:06;;;;;;;13.90;11.50;;;16.40;99.90;;;;;;5036889;28;20465;-68
2022/10/30 10:33:58;;;;;;;18.37;9.80;;;16.50;99.90;;;;;;5032437;28;20819;-69
2022/10/30 10:36:32;;;;;;;10.30;9.20;;;16.60;99.90;;;;;;5040490;28;20866;-69
2022/10/30 10:39:31;;;;;;;10.97;9.70;;;16.80;99.90;;;;;;5051953;28;21049;-70
2022/10/30 10:42:09;;;;;;;15.03;9.70;;;16.90;99.90;;;;;;5034313;28;20477;-70
2022/10/30 10:44:43;;;;;;;12.87;11.40;;;17.00;99.90;;;;;;5040019;28;20485;-69
2022/10/30 10:47:45;;;;;;;14.57;11.47;;;17.10;99.90;;;;;;5040746;28;20469;-69
2022/10/30 10:50:32;;;;;;;15.43;12.07;;;17.20;99.90;;;;;;5040183;28;20462;-71
2022/10/30 10:53:21;;;;;;;18.57;11.47;;;17.30;99.90;;;;;;5042996;28;20527;-71
2022/10/30 10:55:50;;;;;;;15.17;12.70;;;17.30;99.90;;;;;;5041962;28;20476;-70
2022/10/30 10:58:40;;;;;;;15.10;11.00;;;17.40;99.90;;;;;;5026639;28;21036;-70
2022/10/30 11:01:14;;;;;;;14.47;10.60;;;17.40;99.90;;;;;;5057493;28;20538;-70
2022/10/30 11:03:55;;;;;;;13.17;11.73;;;17.40;99.90;;;;;;5050152;28;20470;-70
2022/10/30 11:06:27;;;;;;;13.67;11.00;;;17.50;99.90;;;;;;5041227;28;20850;-71
2022/10/30 11:09:20;;;;;;;14.03;11.10;;;17.60;99.90;;;;;;5023912;28;20470;-69
2022/10/30 11:11:51;;;;;;;12.57;10.60;;;17.70;99.90;;;;;;5040969;28;20464;-71
2022/10/30 11:14:23;;;;;;;15.83;11.50;;;17.70;99.90;;;;;;5060355;28;20961;-71
2022/10/30 11:17:02;;;;;;;12.93;10.27;;;17.80;99.90;;;;;;5044684;28;20451;-70
2022/10/30 11:19:30;;;;;;;14.63;10.13;;;17.90;99.90;;;;;;5041092;28;20489;-71
2022/10/30 11:21:57;;;;;;;15.47;11.10;;;17.90;99.90;;;;;;5042936;28;20576;-70
2022/10/30 11:24:35;;;;;;;11.97;10.43;;;17.90;99.90;;;;;;5037707;28;20512;-72
2022/10/30 11:27:22;;;;;;;11.93;10.70;;;18.00;99.90;;;;;;5053165;28;20455;-70
2022/10/30 11:30:13;;;;;;;15.87;11.40;;;18.10;99.90;;;;;;5037391;28;20463;-71
2022/10/30 11:32:39;;;;;;;10.93;9.20;;;18.10;99.90;;;;;;5035604;28;20469;-70
2022/10/30 11:35:07;;;;;;;11.13;9.77;;;18.10;99.90;;;;;;5036101;28;21049;-69
2022/10/30 11:37:38;;;;;;;11.73;9.20;;;18.20;99.90;;;;;;5038395;28;20219;-70
2022/10/30 11:40:18;;;;;;;17.17;10.70;;;18.20;99.90;;;;;;5042116;28;21119;-71
2022/10/30 11:42:55;;;;;;;15.13;11.30;;;18.30;99.90;;;;;;5040380;28;20466;-71
2022/10/30 11:45:26;;;;;;;14.97;10.90;;;18.40;99.90;;;;;;5041208;28;20891;-70
2022/10/30 11:47:53;;;;;;;14.33;11.20;;;18.40;99.90;;;;;;5054069;28;20570;-70
2022/10/30 11:50:22;;;;;;;13.40;10.20;;;18.40;99.90;;;;;;5044094;28;20440;-69
2022/10/30 11:52:59;;;;;;;17.40;10.07;;;18.50;99.90;;;;;;5046384;28;20462;-71
2022/10/30 11:55:34;;;;;;;12.43;9.33;;;18.60;99.90;;;;;;5057246;28;20461;-69
2022/10/30 11:57:59;;;;;;;10.53;9.43;;;18.60;99.90;;;;;;5041094;28;20859;-70
2022/10/30 12:00:28;;;;;;;13.57;10.23;;;18.70;99.90;;;;;;5036711;28;20542;-70
2022/10/30 12:02:56;;;;;;;14.20;10.50;;;18.80;99.90;;;;;;5040340;28;20579;-72
2022/10/30 12:05:24;;;;;;;12.13;10.30;;;18.90;99.90;;;;;;5038094;28;20462;-71
2022/10/30 12:07:50;;;;;;;13.63;9.50;;;18.90;99.90;;;;;;5045096;28;20486;-70
2022/10/30 12:10:27;;;;;;;14.30;10.13;;;18.90;99.90;;;;;;5039266;28;20471;-73
2022/10/30 12:12:53;;;;;;;10.63;9.07;;;19.00;99.90;;;;;;5021928;28;20490;-72
2022/10/30 12:15:20;;;;;;;13.57;9.90;;;19.10;99.90;;;;;;5039355;28;20524;-71
2022/10/30 12:18:01;;;;;;;14.80;10.63;;;19.10;99.90;;;;;;5042182;28;21039;-70
2022/10/30 12:20:27;;;;;;;12.70;9.23;;;19.20;99.90;;;;;;5056675;28;20490;-70
2022/10/30 12:22:54;;;;;;;12.10;8.93;;;19.30;99.90;;;;;;5039952;28;20531;-71
2022/10/30 12:25:30;;;;;;;11.10;9.13;;;19.30;99.90;;;;;;5037267;28;20528;-71
2022/10/30 12:28:16;;;;;;;8.83;8.10;;;19.40;99.90;;;;;;5039765;28;20458;-71
2022/10/30 12:30:57;;;;;;;10.97;9.87;;;19.50;99.90;;;;;;5048623;28;20819;-70
2022/10/30 12:33:40;;;;;;;9.20;8.10;;;19.60;99.90;;;;;;5055061;28;20469;-71
2022/10/30 12:36:12;;;;;;;12.50;9.10;;;19.60;99.90;;;;;;5039160;28;21053;-71
2022/10/30 12:39:01;;;;;;;15.43;8.20;;;19.70;99.90;;;;;;5043320;28;20471;-71
2022/10/30 12:41:39;;;;;;;11.30;8.10;;;19.70;99.90;;;;;;5040078;28;20462;-70
2022/10/30 12:44:14;;;;;;;9.80;7.73;;;19.70;99.90;;;;;;5036325;28;20461;-70
2022/10/30 12:47:10;;;;;;;10.93;8.00;;;19.70;99.90;;;;;;5035565;28;20472;-70
2022/10/30 12:49:52;;;;;;;12.30;7.37;;;19.80;99.90;;;;;;5040552;28;20450;-71
2022/10/30 12:52:34;;;;;;;10.17;7.80;;;19.80;99.90;;;;;;5051497;28;20475;-71
2022/10/30 12:55:02;;;;;;;8.77;7.67;;;19.90;99.90;;;;;;5020080;28;20697;-69
2022/10/30 12:57:34;;;;;;;9.77;6.90;;;19.90;99.90;;;;;;5043644;28;20483;-70
2022/10/30 13:00:08;;;;;;;7.23;6.53;;;20.00;99.90;;;;;;5040314;28;20471;-71
2022/10/30 13:02:37;;;;;;;7.80;6.93;;;20.00;99.90;;;;;;5041782;28;20476;-70
2022/10/30 13:05:17;;;;;;;8.60;6.90;;;20.10;99.90;;;;;;5057309;28;20449;-70